KLOZ

London-Corbin Arpt-Magee Field Airport

London, Kentucky, USA
METAR KLOZ 141253Z AUTO 07003KT 10SM BKN110 09/04 A3009 RMK AO2 SLP190 T00940039 $
Observed Flight Rules
Dec-14 @ 12:53 UTC (32 minutes ago) Visual Flight Rules
Wind Visibility Clouds
70° at 3 knots 10 miles
  • Broken at 11,000' AGL
Temperatures Readings
Current 9°C / 48°F
Dewpoint 4°C / 39°F
Humidity 71%
Altimeter 30.09" Hg
Pressure 1019 hPa
Elevation 362
METAR KLOZ 141253Z AUTO 07003KT 10SM BKN110 09/04 A3009 RMK AO2 SLP190 T00940039 $
Observed Flight Rules
Dec-14 @ 12:53 UTC
(32 minutes ago)
VFR
Wind Visibility
70° at 3 knots 10 miles
Clouds
  • Broken at 11,000' AGL
Temperature Dewpoint
9°C / 48°F 4°C / 39°F
Humidity Altimeter Pressure
71% 30.09" Hg 1019 hPa